Time;durP1;ratioP1;P1;durP2;ratioP2;P2;SDS_P1;SDS_P2;PMS_P1;PMS_P2;Temp;Humidity;BMP_temperature;BMP_pressure;BME280_temperature;BME280_humidity;BME280_pressure;Samples;Min_cycle;Max_cycle;Signal;HPM_P1;HPM_P2
2022/08/18 00:01:02;;;;;;;;;;;;;;;23.89;60.50;99231.00;4499073;31;19968;-88
2022/08/18 00:03:27;;;;;;;;;;;;;;;23.72;60.48;99229.13;4486422;32;25095;-87
2022/08/18 00:05:52;;;;;;;;;;;;;;;23.79;60.50;99225.72;4487180;32;19983;-88
2022/08/18 00:08:18;;;;;;;;;;;;;;;23.65;60.47;99228.84;4487126;32;20312;-88
2022/08/18 00:10:43;;;;;;;;;;;;;;;23.63;60.48;99224.66;4498115;31;33878;-88
2022/08/18 00:13:08;;;;;;;;;;;;;;;23.33;60.46;99220.38;4499014;31;20282;-88
2022/08/18 00:15:33;;;;;;;;;;;;;;;23.35;60.47;99219.25;4498497;31;21696;-88
2022/08/18 00:17:59;;;;;;;;;;;;;;;23.45;60.47;99228.03;4486434;32;29419;-88
2022/08/18 00:20:24;;;;;;;;;;;;;;;23.23;60.46;99221.25;4498249;31;32134;-88
2022/08/18 00:22:49;;;;;;;;;;;;;;;23.20;60.46;99215.37;4498847;31;19985;-88
2022/08/18 00:25:15;;;;;;;;;;;;;;;23.06;60.45;99221.13;4498886;31;20004;-88
2022/08/18 00:27:40;;;;;;;;;;;;;;;23.05;60.45;99216.78;4498933;31;20298;-88
2022/08/18 00:30:06;;;;;;;;;;;;;;;23.02;60.45;99217.06;4498956;31;19972;-87
2022/08/18 00:32:33;;;;;;;;;;;;;;;23.16;60.45;99219.28;4486997;32;20003;-88
2022/08/18 00:35:03;;;;;;;;;;;;;;;23.06;60.45;99219.28;4498755;31;20040;-88
2022/08/18 00:37:29;;;;;;;;;;;;;;;23.12;60.46;99217.88;4498889;31;19988;-87
2022/08/18 00:39:54;;;;;;;;;;;;;;;23.16;60.45;99216.63;4498248;31;22488;-87
2022/08/18 00:42:20;;;;;;;;;;;;;;;23.18;60.46;99222.63;4498270;31;24287;-87
2022/08/18 00:44:45;;;;;;;;;;;;;;;23.13;60.46;99215.09;4498818;31;20059;-87
2022/08/18 00:47:11;;;;;;;;;;;;;;;23.23;60.46;99221.25;4485017;31;22333;-87
2022/08/18 00:49:36;;;;;;;;;;;;;;;23.15;60.46;99218.44;4498745;31;20311;-87
2022/08/18 00:52:03;;;;;;;;;;;;;;;23.13;60.45;99228.38;4498754;31;20058;-88
2022/08/18 00:54:28;;;;;;;;;;;;;;;23.16;60.45;99224.59;4498640;31;19992;-87
2022/08/18 00:56:55;;;;;;;;;;;;;;;23.11;60.46;99232.97;4498742;31;19991;-87
2022/08/18 00:59:23;;;;;;;;;;;;;;;23.01;60.44;99231.31;4484242;31;19986;-89
2022/08/18 01:01:48;;;;;;;;;;;;;;;22.98;60.45;99232.44;4498672;31;20004;-90
2022/08/18 01:04:15;;;;;;;;;;;;;;;23.05;60.45;99232.72;4497602;31;20007;-90
2022/08/18 01:06:48;;;;;;;;;;;;;;;22.92;60.44;99223.19;4498753;31;20351;-90
2022/08/18 01:09:16;;;;;;;;;;;;;;;22.79;60.44;99227.94;4498577;31;19968;-90
2022/08/18 01:11:42;;;;;;;;;;;;;;;22.93;60.44;99235.50;4498454;31;20053;-89
2022/08/18 01:14:07;;;;;;;;;;;;;;;22.81;60.43;99239.28;4498626;31;19988;-88
2022/08/18 01:22:02;;;;;;;;;;;;;;;22.89;60.44;99238.56;4496685;31;20002;-88
2022/08/18 01:27:17;;;;;;;;;;;;;;;22.85;60.44;99248.63;4481139;31;19988;-88
2022/08/18 01:29:46;;;;;;;;;;;;;;;22.65;60.43;99252.22;4498569;31;19964;-89
2022/08/18 01:32:13;;;;;;;;;;;;;;;22.76;60.43;99251.25;4498320;31;19992;-88
2022/08/18 01:34:38;;;;;;;;;;;;;;;22.54;60.42;99247.03;4486571;32;19985;-88
2022/08/18 01:37:04;;;;;;;;;;;;;;;22.62;60.42;99240.06;4497895;31;21805;-88
2022/08/18 01:39:30;;;;;;;;;;;;;;;22.68;60.43;99243.97;4498330;31;19984;-88
2022/08/18 01:41:55;;;;;;;;;;;;;;;22.55;60.42;99246.06;4498248;31;20327;-88
2022/08/18 01:44:20;;;;;;;;;;;;;;;22.53;60.42;99246.22;4497936;31;22469;-88
2022/08/18 01:46:45;;;;;;;;;;;;;;;22.60;60.43;99249.97;4498283;31;20028;-89
2022/08/18 01:49:12;;;;;;;;;;;;;;;22.65;60.43;99249.56;4498608;31;19964;-88
2022/08/18 01:51:40;;;;;;;;;;;;;;;22.40;60.42;99248.25;4499047;31;20343;-88
2022/08/18 01:54:05;;;;;;;;;;;;;;;22.44;60.42;99251.47;4505089;31;19960;-89
2022/08/18 01:56:30;;;;;;;;;;;;;;;22.65;60.43;99260.16;4513512;31;19953;-89
2022/08/18 01:58:56;;;;;;;;;;;;;;;22.60;60.42;99255.28;4513736;31;20004;-90
2022/08/18 02:01:21;;;;;;;;;;;;;;;22.45;60.42;99258.44;4508370;31;19991;-90
2022/08/18 02:03:48;;;;;;;;;;;;;;;22.48;60.42;99261.69;4500953;31;20023;-90
2022/08/18 02:06:13;;;;;;;;;;;;;;;22.50;60.42;99256.25;4500038;31;19968;-89
2022/08/18 02:08:39;;;;;;;;;;;;;;;22.32;60.40;99248.94;4498192;31;19990;-89
2022/08/18 02:11:05;;;;;;;;;;;;;;;22.39;60.41;99251.03;4497778;31;20389;-88
2022/08/18 02:13:30;;;;;;;;;;;;;;;22.42;60.42;99250.78;4497854;31;19988;-90
2022/08/18 02:15:56;;;;;;;;;;;;;;;22.53;60.42;99248.03;4499511;31;19995;-89
2022/08/18 02:18:22;;;;;;;;;;;;;;;22.37;60.41;99249.38;4499245;31;27965;-89
2022/08/18 02:20:47;;;;;;;;;;;;;;;22.34;60.41;99257.59;4499793;31;20007;-88
2022/08/18 02:23:13;;;;;;;;;;;;;;;22.19;60.40;99258.09;4499158;31;26766;-89
2022/08/18 02:25:38;;;;;;;;;;;;;;;22.16;60.41;99256.56;4499851;31;19991;-89
2022/08/18 02:28:04;;;;;;;;;;;;;;;22.19;60.40;99256.28;4499841;31;20015;-88
2022/08/18 02:30:29;;;;;;;;;;;;;;;22.25;60.41;99261.06;4487659;32;20002;-89
2022/08/18 02:32:56;;;;;;;;;;;;;;;22.08;60.39;99259.06;4499604;31;19988;-89
2022/08/18 02:35:21;;;;;;;;;;;;;;;22.01;60.40;99264.03;4499654;31;19976;-88
2022/08/18 02:37:46;;;;;;;;;;;;;;;21.97;60.39;99259.94;4499069;31;27237;-89
2022/08/18 02:40:12;;;;;;;;;;;;;;;21.97;60.40;99259.94;4499750;31;20007;-88
2022/08/18 02:42:38;;;;;;;;;;;;;;;22.06;60.39;99258.34;4499625;31;19988;-89
2022/08/18 02:45:03;;;;;;;;;;;;;;;22.09;60.39;99262.53;4499528;31;20348;-88
2022/08/18 02:47:29;;;;;;;;;;;;;;;22.20;60.40;99255.31;4499408;31;20003;-90
2022/08/18 02:49:54;;;;;;;;;;;;;;;22.03;60.39;99262.09;4499194;31;20356;-89
2022/08/18 02:52:19;;;;;;;;;;;;;;;22.07;60.39;99264.50;4498995;31;25281;-89
2022/08/18 02:54:44;;;;;;;;;;;;;;;22.14;60.39;99266.47;4487493;32;20275;-90
2022/08/18 02:57:10;;;;;;;;;;;;;;;22.23;60.40;99265.66;4499495;31;20028;-90
2022/08/18 02:59:37;;;;;;;;;;;;;;;22.17;60.39;99268.84;4499179;31;20006;-89
2022/08/18 03:02:02;;;;;;;;;;;;;;;22.21;60.40;99270.25;4502118;31;20306;-93
2022/08/18 03:04:28;;;;;;;;;;;;;;;22.10;60.40;99280.12;4500262;31;19972;-92
2022/08/18 03:06:53;;;;;;;;;;;;;;;22.22;60.40;99277.22;4499715;31;19973;-92
2022/08/18 03:09:18;;;;;;;;;;;;;;;22.24;60.41;99280.62;4500423;31;20360;-92
2022/08/18 03:11:44;;;;;;;;;;;;;;;22.27;60.41;99277.69;4485858;31;20012;-91
2022/08/18 03:14:09;;;;;;;;;;;;;;;22.23;60.40;99278.06;4499071;31;20017;-90
2022/08/18 03:16:36;;;;;;;;;;;;;;;22.35;60.41;99277.84;4499313;31;20009;-89
2022/08/18 03:19:01;;;;;;;;;;;;;;;22.09;60.39;99281.94;4499111;31;20011;-89
2022/08/18 03:21:27;;;;;;;;;;;;;;;22.22;60.40;99292.28;4486814;32;19980;-89
2022/08/18 03:23:53;;;;;;;;;;;;;;;22.27;60.40;99280.34;4499385;31;20349;-89
2022/08/18 03:26:18;;;;;;;;;;;;;;;22.14;60.39;99284.19;4499139;31;20300;-89
2022/08/18 03:28:44;;;;;;;;;;;;;;;22.18;60.40;99275.81;4500134;31;20003;-88
2022/08/18 03:31:09;;;;;;;;;;;;;;;22.33;60.41;99281.59;4499443;31;20010;-87
2022/08/18 03:33:35;;;;;;;;;;;;;;;22.39;60.40;99274.91;4498942;31;20022;-88
2022/08/18 03:36:11;;;;;;;;;;;;;;;22.41;60.42;99281.75;4498963;31;20327;-87
2022/08/18 03:38:36;;;;;;;;;;;;;;;22.36;60.41;99273.38;4498610;31;20710;-88
2022/08/18 03:41:01;;;;;;;;;;;;;;;22.20;60.40;99268.56;4497573;31;20028;-88
2022/08/18 03:43:26;;;;;;;;;;;;;;;22.14;60.39;99269.13;4498182;31;19972;-87
2022/08/18 03:45:53;;;;;;;;;;;;;;;22.17;60.39;99268.84;4498103;31;21979;-89
2022/08/18 03:48:18;;;;;;;;;;;;;;;22.11;60.40;99277.34;4498240;31;20008;-89
2022/08/18 03:50:46;;;;;;;;;;;;;;;22.05;60.39;99281.38;4497841;31;20034;-89
2022/08/18 03:53:11;;;;;;;;;;;;;;;22.05;60.38;99276.06;4498823;31;20047;-88
2022/08/18 03:55:39;;;;;;;;;;;;;;;22.22;60.40;99266.63;4498311;31;25621;-87
2022/08/18 03:58:04;;;;;;;;;;;;;;;22.13;60.40;99266.59;4487034;32;20321;-88
2022/08/18 04:00:30;;;;;;;;;;;;;;;22.23;60.39;99273.59;4498647;31;19980;-87
2022/08/18 04:02:55;;;;;;;;;;;;;;;22.23;60.40;99278.06;4498799;31;20291;-86
2022/08/18 04:05:21;;;;;;;;;;;;;;;22.37;60.40;99277.69;4486877;32;19991;-86
2022/08/18 04:07:46;;;;;;;;;;;;;;;22.18;60.40;99273.16;4499159;31;20279;-87
2022/08/18 04:10:11;;;;;;;;;;;;;;;22.21;60.40;99272.91;4498770;31;19980;-86
2022/08/18 04:12:37;;;;;;;;;;;;;;;22.30;60.40;99273.94;4498685;31;19977;-86
2022/08/18 04:15:02;;;;;;;;;;;;;;;22.25;60.40;99279.63;4498403;31;20284;-87
2022/08/18 04:17:28;;;;;;;;;;;;;;;22.31;60.39;99281.75;4498851;31;20004;-86
2022/08/18 04:19:54;;;;;;;;;;;;;;;22.36;60.41;99276.03;4487068;32;19996;-86
2022/08/18 04:22:19;;;;;;;;;;;;;;;22.43;60.41;99271.84;4498607;31;20375;-86
2022/08/18 04:24:45;;;;;;;;;;;;;;;22.37;60.40;99267.94;4498946;31;19995;-87
2022/08/18 04:27:10;;;;;;;;;;;;;;;22.62;60.41;99265.75;4498660;31;19996;-86
2022/08/18 04:29:35;;;;;;;;;;;;;;;22.75;60.42;99269.00;4498512;31;20000;-87
2022/08/18 04:32:02;;;;;;;;;;;;;;;22.80;60.43;99273.88;4485982;32;20025;-87
2022/08/18 04:34:28;;;;;;;;;;;;;;;22.90;60.43;99274.75;4498564;31;20320;-86
2022/08/18 04:36:53;;;;;;;;;;;;;;;23.01;60.43;99265.84;4499274;31;19981;-87
2022/08/18 04:39:18;;;;;;;;;;;;;;;23.06;60.45;99258.28;4487155;32;19991;-87
2022/08/18 04:41:43;;;;;;;;;;;;;;;23.13;60.45;99262.03;4499776;31;20303;-88
2022/08/18 04:44:09;;;;;;;;;;;;;;;23.21;60.45;99265.69;4486873;32;34627;-88
2022/08/18 04:46:35;;;;;;;;;;;;;;;23.27;60.45;99275.75;4498854;31;20072;-87
2022/08/18 04:49:00;;;;;;;;;;;;;;;23.38;60.46;99274.72;4499033;31;20056;-87
2022/08/18 04:51:27;;;;;;;;;;;;;;;23.53;60.46;99273.31;4499282;31;19973;-88
2022/08/18 04:53:52;;;;;;;;;;;;;;;23.65;60.46;99268.69;4485484;31;19983;-88
2022/08/18 04:56:28;;;;;;;;;;;;;;;23.84;60.48;99270.47;4498143;31;20036;-88
2022/08/18 04:59:12;;;;;;;;;;;;;;;24.01;60.49;99266.22;4498064;31;19988;-88
2022/08/18 05:01:41;;;;;;;;;;;;;;;24.15;60.49;99261.25;4485970;32;20073;-88
2022/08/18 05:04:06;;;;;;;;;;;;;;;24.40;60.51;99258.94;4498463;31;20300;-89
2022/08/18 05:06:31;;;;;;;;;;;;;;;24.54;60.51;99258.41;4497837;31;30279;-89
2022/08/18 05:08:57;;;;;;;;;;;;;;;24.79;60.52;99260.31;4486188;32;19973;-89
2022/08/18 05:11:23;;;;;;;;;;;;;;;24.89;60.53;99251.44;4498483;31;20032;-88
2022/08/18 05:13:48;;;;;;;;;;;;;;;25.02;60.53;99246.59;4498099;31;19980;-87
2022/08/18 05:16:14;;;;;;;;;;;;;;;25.13;60.53;99243.69;4498023;31;19992;-88
2022/08/18 05:18:39;;;;;;;;;;;;;;;25.22;60.54;99248.09;4498452;31;20028;-88
2022/08/18 05:21:05;;;;;;;;;;;;;;;25.30;60.56;99252.63;4486411;32;20008;-87
2022/08/18 05:23:30;;;;;;;;;;;;;;;25.56;60.57;99253.53;4498842;31;19999;-88
2022/08/18 05:25:58;;;;;;;;;;;;;;;25.77;60.57;99249.66;4485806;32;20023;-87
2022/08/18 05:28:24;;;;;;;;;;;;;;;25.91;60.58;99257.91;4498145;31;20135;-87
2022/08/18 05:30:49;;;;;;;;;;;;;;;26.02;60.59;99259.44;4498322;31;20009;-88
2022/08/18 05:33:14;;;;;;;;;;;;;;;26.21;60.59;99258.38;4486311;32;20361;-88
2022/08/18 05:35:47;;;;;;;;;;;;;;;26.37;60.61;99260.31;4497942;31;27124;-88
2022/08/18 05:38:27;;;;;;;;;;;;;;;26.48;60.62;99252.81;4498374;31;19987;-87
2022/08/18 05:41:02;;;;;;;;;;;;;;;26.64;60.63;99253.87;4499057;31;20361;-87
2022/08/18 05:43:27;;;;;;;;;;;;;;;26.89;60.63;99250.25;4512371;31;20006;-88
2022/08/18 05:45:53;;;;;;;;;;;;;;;27.02;60.63;99250.62;4512656;31;30956;-87
2022/08/18 05:48:18;;;;;;;;;;;;;;;27.14;60.65;99251.12;4511383;31;19988;-87
2022/08/18 05:50:43;;;;;;;;;;;;;;;27.28;60.66;99252.28;4498868;31;19972;-87
2022/08/18 05:53:11;;;;;;;;;;;;;;;27.36;60.65;99254.94;4498897;31;34244;-88
2022/08/18 05:58:22;;;;;;;;;;;;;;;27.46;60.66;99256.47;4496356;31;19986;-87
2022/08/18 06:00:52;;;;;;;;;;;;;;;27.71;60.67;99257.28;4497693;31;19977;-88
2022/08/18 06:03:21;;;;;;;;;;;;;;;27.69;60.67;99253.94;4497546;31;20353;-87
2022/08/18 06:06:00;;;;;;;;;;;;;;;27.92;60.69;99253.19;4498006;31;20363;-87
2022/08/18 06:08:45;;;;;;;;;;;;;;;27.98;60.69;99250.69;4497878;31;19988;-87
2022/08/18 06:11:10;;;;;;;;;;;;;;;27.98;60.69;99256.03;4497863;31;20075;-87
2022/08/18 06:13:36;;;;;;;;;;;;;;;28.15;60.70;99262.13;4498267;31;19973;-87
2022/08/18 06:16:05;;;;;;;;;;;;;;;28.28;60.70;99254.44;4497398;31;20238;-87
2022/08/18 06:18:33;;;;;;;;;;;;;;;28.23;60.71;99261.28;4497783;31;20041;-88
2022/08/18 06:21:10;;;;;;;;;;;;;;;28.25;60.70;99257.47;4486015;32;19992;-89
2022/08/18 06:23:48;;;;;;;;;;;;;;;28.30;60.71;99264.97;4486019;32;19976;-87
2022/08/18 06:26:33;;;;;;;;;;;;;;;28.30;60.71;99263.13;4497724;31;19997;-88
2022/08/18 06:28:59;;;;;;;;;;;;;;;28.51;60.71;99251.81;4485882;32;19999;-88
2022/08/18 06:31:45;;;;;;;;;;;;;;;28.49;60.71;99261.03;4497760;31;20336;-88
2022/08/18 06:34:11;;;;;;;;;;;;;;;28.71;60.73;99254.87;4497699;31;19981;-88
2022/08/18 06:36:36;;;;;;;;;;;;;;;28.76;60.72;99260.53;4485607;32;19984;-87
2022/08/18 06:39:06;;;;;;;;;;;;;;;28.99;60.74;99256.03;4485849;32;20017;-87
2022/08/18 06:41:33;;;;;;;;;;;;;;;29.10;60.74;99256.63;4497530;31;19976;-89
2022/08/18 06:43:59;;;;;;;;;;;;;;;29.17;60.74;99254.91;4497537;31;19990;-88
2022/08/18 06:46:34;;;;;;;;;;;;;;;29.22;60.75;99261.41;4497532;31;19992;-89
2022/08/18 06:49:02;;;;;;;;;;;;;;;29.31;60.77;99262.97;4485526;32;19984;-88
2022/08/18 06:51:27;;;;;;;;;;;;;;;29.36;60.75;99258.94;4497389;31;20325;-87
2022/08/18 06:53:54;;;;;;;;;;;;;;;29.36;60.76;99256.25;4485569;32;19972;-89
2022/08/18 06:56:24;;;;;;;;;;;;;;;29.39;60.76;99253.22;4497251;31;20012;-88
2022/08/18 06:58:53;;;;;;;;;;;;;;;29.27;60.75;99245.59;4497370;31;20059;-89
2022/08/18 07:01:18;;;;;;;;;;;;;;;29.38;60.76;99244.34;4498259;31;20001;-88
2022/08/18 07:03:53;;;;;;;;;;;;;;;29.56;60.76;99244.84;4486340;31;20309;-87
2022/08/18 07:06:19;;;;;;;;;;;;;;;29.68;60.78;99234.50;4499482;31;19992;-88
2022/08/18 07:08:45;;;;;;;;;;;;;;;29.69;60.77;99241.53;4487666;32;20042;-89
2022/08/18 07:11:13;;;;;;;;;;;;;;;29.78;60.78;99243.09;4499518;31;20313;-88
2022/08/18 07:13:39;;;;;;;;;;;;;;;29.81;60.79;99241.91;4487647;32;20313;-87
2022/08/18 07:16:19;;;;;;;;;;;;;;;29.99;60.79;99246.91;4499366;31;20041;-89
2022/08/18 07:18:45;;;;;;;;;;;;;;;30.07;60.80;99244.16;4499262;31;20037;-88
2022/08/18 07:21:10;;;;;;;;;;;;;;;30.04;60.79;99237.28;4499370;31;20037;-87
2022/08/18 07:23:39;;;;;;;;;;;;;;;29.99;60.79;99242.38;4498815;31;21266;-89
2022/08/18 07:26:11;;;;;;;;;;;;;;;30.19;60.80;99234.59;4499024;31;20048;-88
2022/08/18 07:28:46;;;;;;;;;;;;;;;30.18;60.80;99236.47;4499496;31;19997;-88
2022/08/18 07:31:18;;;;;;;;;;;;;;;30.39;60.81;99230.31;4499379;31;20006;-87
2022/08/18 07:33:49;;;;;;;;;;;;;;;30.23;60.80;99234.03;4499220;31;19995;-87
2022/08/18 07:36:15;;;;;;;;;;;;;;;30.37;60.81;99239.59;4485999;31;20008;-87
2022/08/18 07:38:42;;;;;;;;;;;;;;;30.40;60.82;99225.78;4499106;31;19984;-87
2022/08/18 07:41:19;;;;;;;;;;;;;;;30.49;60.81;99222.78;4499241;31;19980;-87
2022/08/18 07:43:50;;;;;;;;;;;;;;;30.61;60.83;99223.16;4499163;31;20040;-87
2022/08/18 07:46:16;;;;;;;;;;;;;;;30.74;60.83;99231.34;4499159;31;20004;-86
2022/08/18 07:48:41;;;;;;;;;;;;;;;30.82;60.83;99236.59;4499170;31;20008;-86
2022/08/18 07:51:14;;;;;;;;;;;;;;;30.90;60.84;99224.88;4498126;31;35969;-86
2022/08/18 07:54:00;;;;;;;;;;;;;;;31.03;60.84;99245.69;4499265;31;20518;-87
2022/08/18 07:56:28;;;;;;;;;;;;;;;31.17;60.86;99244.81;4487030;31;20037;-86
2022/08/18 07:58:58;;;;;;;;;;;;;;;31.31;60.87;99249.28;4487258;32;20011;-86
2022/08/18 08:01:29;;;;;;;;;;;;;;;31.44;60.87;99252.06;4499048;31;19976;-86
2022/08/18 08:03:58;;;;;;;;;;;;;;;31.55;60.86;99250.69;4499049;31;20290;-86
2022/08/18 08:06:27;;;;;;;;;;;;;;;31.58;60.87;99261.06;4498841;31;19988;-86
2022/08/18 08:09:05;;;;;;;;;;;;;;;31.70;60.88;99264.88;4499149;31;20326;-86
2022/08/18 08:11:39;;;;;;;;;;;;;;;31.91;60.89;99265.84;4498721;31;19987;-86
2022/08/18 08:14:37;;;;;;;;;;;;;;;32.06;60.90;99277.34;4499009;31;20004;-85
2022/08/18 08:17:04;;;;;;;;;;;;;;;32.14;60.91;99276.34;4476802;32;20040;-85
2022/08/18 08:19:52;;;;;;;;;;;;;;;32.18;60.90;99281.16;4499236;31;20304;-85
2022/08/18 08:22:22;;;;;;;;;;;;;;;32.30;60.91;99279.56;4499095;31;19972;-85
2022/08/18 08:25:02;;;;;;;;;;;;;;;32.46;60.92;99283.78;4498929;31;20252;-85
2022/08/18 08:27:35;;;;;;;;;;;;;;;32.65;60.93;99274.94;4499124;31;20003;-85
2022/08/18 08:30:07;;;;;;;;;;;;;;;32.89;60.94;99280.84;4498868;31;20340;-85
2022/08/18 08:32:34;;;;;;;;;;;;;;;32.97;60.94;99277.94;4498950;31;19980;-85
2022/08/18 08:35:02;;;;;;;;;;;;;;;33.15;60.95;99270.09;4487008;32;19996;-85
2022/08/18 08:37:46;;;;;;;;;;;;;;;33.35;60.96;99264.72;4486988;32;20264;-85
2022/08/18 08:40:31;;;;;;;;;;;;;;;33.52;60.97;99267.84;4499161;31;20120;-86
2022/08/18 08:43:01;;;;;;;;;;;;;;;33.64;60.97;99268.03;4498262;31;19980;-86
2022/08/18 08:45:31;;;;;;;;;;;;;;;33.83;60.98;99264.44;4498841;31;19976;-86
2022/08/18 08:47:59;;;;;;;;;;;;;;;34.01;60.99;99248.44;4498608;31;20080;-86
2022/08/18 08:50:25;;;;;;;;;;;;;;;34.10;60.99;99246.37;4498948;31;20034;-86
2022/08/18 08:52:50;;;;;;;;;;;;;;;34.36;61.00;99246.28;4498822;31;19995;-86
2022/08/18 08:55:17;;;;;;;;;;;;;;;34.49;61.01;99248.09;4498680;31;20348;-86
2022/08/18 08:57:53;;;;;;;;;;;;;;;34.65;61.03;99241.34;4498721;31;19992;-86
2022/08/18 09:00:20;;;;;;;;;;;;;;;34.76;61.04;99236.06;4498743;31;19980;-86
2022/08/18 09:02:51;;;;;;;;;;;;;;;34.95;61.04;99237.00;4498641;31;20084;-86
2022/08/18 09:05:27;;;;;;;;;;;;;;;34.96;61.04;99235.12;4498541;31;19999;-87
2022/08/18 09:08:08;;;;;;;;;;;;;;;34.96;61.04;99235.12;4498656;31;20000;-87
2022/08/18 09:10:51;;;;;;;;;;;;;;;35.14;61.05;99237.09;4486600;32;20272;-86
2022/08/18 09:13:22;;;;;;;;;;;;;;;35.03;61.05;99230.53;4498721;31;20059;-86
2022/08/18 09:15:57;;;;;;;;;;;;;;;34.98;61.04;99233.88;4498517;31;19972;-86
2022/08/18 09:18:33;;;;;;;;;;;;;;;34.82;61.04;99228.16;4486698;32;19980;-87
2022/08/18 09:21:21;;;;;;;;;;;;;;;34.78;61.04;99228.59;4498415;31;20374;-87
2022/08/18 09:23:47;;;;;;;;;;;;;;;35.11;61.05;99222.13;4477268;32;20346;-87
2022/08/18 09:26:23;;;;;;;;;;;;;;;35.03;61.05;99225.94;4498893;31;19977;-87
2022/08/18 09:28:55;;;;;;;;;;;;;;;35.11;61.05;99229.41;4498505;31;20011;-87
2022/08/18 09:31:20;;;;;;;;;;;;;;;35.22;61.05;99234.09;4486519;32;20024;-87
2022/08/18 09:33:48;;;;;;;;;;;;;;;35.24;61.05;99232.81;4485768;32;30523;-87
2022/08/18 09:36:18;;;;;;;;;;;;;;;35.26;61.07;99219.09;4485122;31;19991;-87
2022/08/18 09:41:34;;;;;;;;;;;;;;;35.77;61.09;99216.13;4507406;31;19975;-87
2022/08/18 09:44:09;;;;;;;;;;;;;;;35.89;61.08;99202.69;4513584;31;19968;-87
2022/08/18 09:46:52;;;;;;;;;;;;;;;35.91;61.10;99200.56;4500965;32;20041;-87
2022/08/18 09:49:21;;;;;;;;;;;;;;;36.01;61.09;99192.75;4500519;31;19992;-87
2022/08/18 09:51:46;;;;;;;;;;;;;;;35.88;61.08;99185.59;4498258;31;19996;-87
2022/08/18 09:54:12;;;;;;;;;;;;;;;35.88;61.08;99176.66;4497677;31;25922;-87
2022/08/18 09:56:49;;;;;;;;;;;;;;;36.12;61.09;99167.59;4498287;31;19965;-87
2022/08/18 09:59:33;;;;;;;;;;;;;;;36.09;61.10;99173.47;4498088;31;20016;-87
2022/08/18 10:01:58;;;;;;;;;;;;;;;36.13;61.10;99171.13;4486214;32;20004;-87
2022/08/18 10:04:28;;;;;;;;;;;;;;;36.25;61.11;99164.72;4486216;32;20022;-87
2022/08/18 10:06:53;;;;;;;;;;;;;;;36.37;61.11;99155.81;4497978;31;19969;-87
2022/08/18 10:09:21;;;;;;;;;;;;;;;36.59;61.12;99148.81;4498004;31;20045;-87
2022/08/18 10:12:05;;;;;;;;;;;;;;;36.84;61.13;99154.91;4497935;31;20003;-87
2022/08/18 10:14:51;;;;;;;;;;;;;;;36.94;61.14;99150.81;4498028;31;19985;-87
2022/08/18 10:17:16;;;;;;;;;;;;;;;37.04;61.15;99151.03;4481154;31;19991;-88
2022/08/18 10:19:41;;;;;;;;;;;;;;;37.01;61.14;99151.50;4497935;31;19997;-87
2022/08/18 10:22:08;;;;;;;;;;;;;;;37.25;61.15;99155.91;4497703;31;20017;-87
2022/08/18 10:24:39;;;;;;;;;;;;;;;37.47;61.16;99167.81;4497766;31;20003;-87
2022/08/18 10:27:06;;;;;;;;;;;;;;;37.46;61.17;99159.91;4485928;32;19981;-88
2022/08/18 10:29:51;;;;;;;;;;;;;;;37.46;61.17;99162.63;4497787;31;20087;-87
2022/08/18 10:32:20;;;;;;;;;;;;;;;37.53;61.17;99155.19;4485663;31;20271;-87
2022/08/18 10:34:51;;;;;;;;;;;;;;;37.72;61.18;99142.31;4497982;31;19998;-87
2022/08/18 10:37:17;;;;;;;;;;;;;;;37.83;61.18;99140.63;4499806;31;19973;-87
2022/08/18 10:39:42;;;;;;;;;;;;;;;37.94;61.19;99146.03;4500094;31;20003;-88
2022/08/18 10:42:26;;;;;;;;;;;;;;;37.92;61.19;99150.88;4487818;32;20013;-87
2022/08/18 10:44:52;;;;;;;;;;;;;;;38.06;61.19;99146.78;4499700;31;19976;-87
2022/08/18 10:47:28;;;;;;;;;;;;;;;38.02;61.19;99145.63;4499984;31;19976;-87
2022/08/18 10:49:53;;;;;;;;;;;;;;;38.04;61.19;99140.78;4499577;31;19993;-88
2022/08/18 10:52:21;;;;;;;;;;;;;;;38.37;61.20;99140.09;4499251;31;28578;-87
2022/08/18 10:54:47;;;;;;;;;;;;;;;38.51;61.22;99135.16;4499489;31;20015;-87
2022/08/18 10:57:15;;;;;;;;;;;;;;;38.65;61.21;99127.53;4499505;31;20290;-87
2022/08/18 10:59:43;;;;;;;;;;;;;;;38.85;61.23;99121.59;4499421;31;20502;-88
2022/08/18 11:02:14;;;;;;;;;;;;;;;38.99;61.24;99131.87;4487644;32;19984;-88
2022/08/18 11:04:46;;;;;;;;;;;;;;;39.23;61.25;99138.00;4487609;32;20040;-88
2022/08/18 11:07:14;;;;;;;;;;;;;;;39.29;61.25;99128.03;4499220;31;19983;-87
2022/08/18 11:09:39;;;;;;;;;;;;;;;39.46;61.25;99125.22;4499353;31;20291;-87
2022/08/18 11:12:05;;;;;;;;;;;;;;;39.27;61.25;99128.25;4498588;31;35440;-87
2022/08/18 11:14:36;;;;;;;;;;;;;;;39.33;61.25;99125.63;4499124;31;20029;-87
2022/08/18 11:17:04;;;;;;;;;;;;;;;39.38;61.25;99126.50;4487522;32;19978;-88
2022/08/18 11:19:33;;;;;;;;;;;;;;;39.54;61.26;99116.69;4487615;32;20042;-88
2022/08/18 11:22:00;;;;;;;;;;;;;;;39.57;61.27;99122.44;4499268;31;19998;-87
2022/08/18 11:24:26;;;;;;;;;;;;;;;39.62;61.26;99121.69;4487488;32;20002;-88
2022/08/18 11:26:58;;;;;;;;;;;;;;;39.59;61.27;99114.84;4487528;32;19986;-88
2022/08/18 11:29:37;;;;;;;;;;;;;;;39.64;61.27;99105.91;4499193;31;20264;-87
2022/08/18 11:32:05;;;;;;;;;;;;;;;39.58;61.27;99104.19;4499209;31;19992;-87
2022/08/18 11:34:38;;;;;;;;;;;;;;;39.67;61.27;99093.66;4487371;32;19976;-88
2022/08/18 11:37:07;;;;;;;;;;;;;;;39.93;61.28;99092.88;4499329;31;20036;-89
2022/08/18 11:39:33;;;;;;;;;;;;;;;40.02;61.28;99091.38;4499217;31;20007;-88
2022/08/18 11:41:58;;;;;;;;;;;;;;;39.96;61.29;99081.47;4498629;31;22914;-88
2022/08/18 11:44:24;;;;;;;;;;;;;;;39.86;61.28;99070.47;4499263;31;19995;-88
2022/08/18 11:46:53;;;;;;;;;;;;;;;40.06;61.29;99069.88;4498398;31;20316;-87
2022/08/18 11:49:20;;;;;;;;;;;;;;;40.00;61.29;99077.19;4499045;31;20047;-88
2022/08/18 11:52:05;;;;;;;;;;;;;;;40.18;61.29;99082.25;4498969;31;20315;-88
2022/08/18 11:54:40;;;;;;;;;;;;;;;40.31;61.30;99078.28;4487616;32;20001;-88
2022/08/18 11:57:25;;;;;;;;;;;;;;;40.48;61.31;99070.03;4499253;31;20020;-87
2022/08/18 11:59:50;;;;;;;;;;;;;;;40.24;61.29;99069.53;4499359;31;19984;-88
2022/08/18 12:02:18;;;;;;;;;;;;;;;40.32;61.30;99063.56;4498711;31;28220;-87
2022/08/18 12:04:43;;;;;;;;;;;;;;;40.36;61.30;99064.69;4499202;31;19977;-88
2022/08/18 12:07:09;;;;;;;;;;;;;;;40.26;61.30;99063.81;4498556;31;30644;-87
2022/08/18 12:09:45;;;;;;;;;;;;;;;40.24;61.30;99058.63;4487232;32;20384;-87
2022/08/18 12:12:14;;;;;;;;;;;;;;;40.18;61.29;99060.44;4498934;31;20033;-88
2022/08/18 12:14:58;;;;;;;;;;;;;;;40.31;61.30;99052.94;4499092;31;20352;-88
2022/08/18 12:17:23;;;;;;;;;;;;;;;40.25;61.30;99051.25;4486945;32;20284;-87
2022/08/18 12:19:49;;;;;;;;;;;;;;;40.18;61.29;99046.00;4498836;31;20024;-87
2022/08/18 12:22:15;;;;;;;;;;;;;;;40.16;61.30;99035.34;4498813;31;20003;-88
2022/08/18 12:24:40;;;;;;;;;;;;;;;40.25;61.30;99022.06;4498878;31;19990;-87
2022/08/18 12:27:05;;;;;;;;;;;;;;;40.32;61.30;99019.94;4487055;32;19996;-88
2022/08/18 12:29:30;;;;;;;;;;;;;;;40.36;61.30;99018.34;4498781;31;20000;-88
2022/08/18 12:31:56;;;;;;;;;;;;;;;40.42;61.30;99017.31;4498940;31;19984;-87
2022/08/18 12:34:28;;;;;;;;;;;;;;;40.39;61.31;99017.03;4485715;31;20349;-89
2022/08/18 12:36:53;;;;;;;;;;;;;;;40.18;61.29;99016.00;4498116;31;20020;-88
2022/08/18 12:39:18;;;;;;;;;;;;;;;40.29;61.29;99019.66;4498844;31;20004;-87
2022/08/18 12:41:44;;;;;;;;;;;;;;;40.23;61.30;99029.69;4498841;31;19997;-87
2022/08/18 12:44:10;;;;;;;;;;;;;;;40.18;61.29;99033.19;4498710;31;19984;-88
2022/08/18 12:46:35;;;;;;;;;;;;;;;40.19;61.29;99020.38;4485840;31;20022;-87
2022/08/18 12:49:02;;;;;;;;;;;;;;;40.17;61.29;99028.81;4498113;31;26319;-87
2022/08/18 12:51:27;;;;;;;;;;;;;;;40.39;61.31;99038.84;4498843;31;19984;-87
2022/08/18 12:53:52;;;;;;;;;;;;;;;40.39;61.31;99044.28;4498487;31;20021;-88
2022/08/18 12:56:21;;;;;;;;;;;;;;;40.53;61.32;99037.31;4485875;32;36876;-88
2022/08/18 12:58:47;;;;;;;;;;;;;;;40.60;61.31;99048.81;4498629;31;20011;-87
2022/08/18 13:01:12;;;;;;;;;;;;;;;40.39;61.31;99047.03;4498692;31;20328;-87
2022/08/18 13:03:37;;;;;;;;;;;;;;;40.31;61.30;99048.31;4497808;31;36342;-87
2022/08/18 13:06:03;;;;;;;;;;;;;;;40.44;61.30;99049.78;4497943;31;28829;-89
2022/08/18 13:08:28;;;;;;;;;;;;;;;40.51;61.31;99049.59;4498636;31;19992;-87